Terminal Aerodrome Forecast
Issued by NWS Louisville, KY

Home | Current Version | Previous Version | Text Only | Print | Product List | Glossary On
Versions: 1 2 3 4 5 6 7 8 9 10 11 12 13 14 15
799
FTUS43 KLMK 282327
TAFLEX
TAF
KLEX 282327Z 2900/2924 28005KT P6SM SCT030 BKN100
     FM290700 VRB03KT 3SM BR OVC008
     FM291400 VRB03KT 5SM BR BKN015
     FM291800 VRB03KT P6SM VCSH BKN021=

USA.gov is the U.S. government's official web portal to all federal, state and local government web resources and services.